Time;durP1;ratioP1;P1;durP2;ratioP2;P2;SDS_P1;SDS_P2;PMS_P1;PMS_P2;Temp;Humidity;BMP_temperature;BMP_pressure;BME280_temperature;BME280_humidity;BME280_pressure;Samples;Min_cycle;Max_cycle;Signal;HPM_P1;HPM_P2
2021/08/07 07:53:05;;;;;;;10.70;1.70;;;21.50;99.90;;;;;;14982244;22;1463441;-54
2021/08/07 07:58:52;;;;;;;8.45;1.65;;;22.00;99.90;;;;;;14998847;22;20364;-56
2021/08/07 08:04:39;;;;;;;9.13;1.63;;;22.00;99.90;;;;;;14998900;22;20030;-55
2021/08/07 08:10:27;;;;;;;7.32;1.73;;;22.00;99.90;;;;;;14998766;22;20019;-57
2021/08/07 08:16:14;;;;;;;12.75;1.98;;;21.90;99.90;;;;;;14999222;22;20023;-54
2021/08/07 08:22:01;;;;;;;8.27;1.75;;;22.00;99.90;;;;;;14997795;22;20096;-54
2021/08/07 08:27:49;;;;;;;6.03;1.60;;;22.20;99.90;;;;;;14992830;22;20034;-55
2021/08/07 08:33:36;;;;;;;11.52;1.60;;;22.40;99.90;;;;;;14983698;22;20025;-55
2021/08/07 08:39:23;;;;;;;7.50;1.73;;;22.20;99.90;;;;;;14982635;22;20026;-56
2021/08/07 08:45:12;;;;;;;8.68;1.77;;;21.90;99.90;;;;;;14984643;22;20035;-53
2021/08/07 08:51:00;;;;;;;10.38;2.05;;;21.80;99.90;;;;;;14981543;22;20059;-56
2021/08/07 08:56:49;;;;;;;8.40;2.13;;;21.50;99.90;;;;;;14981401;22;20115;-55
2021/08/07 09:02:38;;;;;;;6.85;1.90;;;21.50;99.90;;;;;;14982592;22;20025;-55
2021/08/07 09:08:25;;;;;;;7.38;2.55;;;21.20;99.90;;;;;;14981386;22;20023;-53
2021/08/07 09:14:25;;;;;;;10.25;2.42;;;21.10;99.90;;;;;;14981469;22;20026;-55
2021/08/07 09:20:13;;;;;;;7.57;2.13;;;21.20;99.90;;;;;;14982117;22;20022;-55
2021/08/07 09:26:13;;;;;;;11.18;2.33;;;21.70;99.90;;;;;;14983663;22;20027;-55
2021/08/07 09:32:00;;;;;;;5.80;1.95;;;21.90;99.90;;;;;;14982544;22;20029;-56
2021/08/07 09:38:04;;;;;;;6.28;2.30;;;21.90;99.90;;;;;;14981090;22;20042;-56
2021/08/07 09:43:52;;;;;;;9.25;1.60;;;22.00;99.90;;;;;;14979235;22;20781;-54
2021/08/07 09:49:41;;;;;;;5.85;1.73;;;22.10;99.90;;;;;;14982379;22;20027;-55
2021/08/07 09:55:30;;;;;;;8.60;1.80;;;22.20;99.90;;;;;;14980588;22;20342;-52
2021/08/07 10:01:31;;;;;;;3.17;1.38;;;22.00;99.90;;;;;;14982132;22;20026;-57
2021/08/07 10:07:18;;;;;;;7.03;1.60;;;21.70;99.90;;;;;;14983964;22;20192;-55
2021/08/07 10:13:07;;;;;;;9.07;1.60;;;21.40;99.90;;;;;;14983609;22;20025;-55
2021/08/07 10:18:55;;;;;;;4.28;1.70;;;21.30;99.90;;;;;;14978385;22;20461;-53
2021/08/07 10:24:44;;;;;;;5.43;1.38;;;21.00;99.90;;;;;;14980534;22;20368;-56
2021/08/07 10:30:34;;;;;;;3.17;1.60;;;20.90;99.90;;;;;;14980878;22;20023;-54
2021/08/07 10:36:23;;;;;;;6.47;2.28;;;21.00;99.90;;;;;;14981404;22;20030;-56
2021/08/07 10:42:14;;;;;;;6.63;1.77;;;21.10;99.90;;;;;;14926524;22;20023;-79
2021/08/07 10:48:03;;;;;;;5.50;2.00;;;21.10;99.90;;;;;;14891538;22;20023;-78
2021/08/07 10:53:50;;;;;;;7.15;1.90;;;21.30;99.90;;;;;;14858948;22;20042;-78
2021/08/07 10:59:41;;;;;;;5.30;1.42;;;21.80;99.90;;;;;;14845550;23;20016;-78
2021/08/07 11:05:49;;;;;;;3.50;1.20;;;22.10;99.90;;;;;;14842979;23;20350;-78
2021/08/07 11:11:36;;;;;;;2.20;1.00;;;22.00;99.90;;;;;;14845314;23;20464;-79
2021/08/07 11:17:33;;;;;;;2.65;1.00;;;22.40;99.90;;;;;;14845338;23;20391;-79
2021/08/07 11:23:23;;;;;;;1.80;1.15;;;22.60;99.90;;;;;;14844614;23;20024;-78
2021/08/07 11:29:10;;;;;;;4.18;1.10;;;22.60;99.90;;;;;;14843200;23;20461;-79
2021/08/07 11:34:57;;;;;;;4.25;1.48;;;22.70;99.90;;;;;;14844994;23;20322;-78
2021/08/07 11:40:47;;;;;;;10.40;1.65;;;22.90;99.90;;;;;;14859160;23;20028;-78
2021/08/07 11:46:40;;;;;;;12.57;1.45;;;23.20;99.90;;;;;;14864401;23;20020;-79
2021/08/07 11:52:31;;;;;;;4.97;1.30;;;23.40;99.90;;;;;;14851581;22;20020;-79
2021/08/07 11:58:19;;;;;;;7.63;1.15;;;23.10;99.90;;;;;;14843218;23;20145;-79
2021/08/07 12:04:06;;;;;;;6.72;1.30;;;22.30;99.90;;;;;;14843728;23;20031;-79
2021/08/07 12:10:05;;;;;;;6.32;1.38;;;21.80;99.90;;;;;;14845949;23;20024;-79
2021/08/07 12:16:00;;;;;;;7.60;1.42;;;21.60;99.90;;;;;;14846190;23;20501;-78
2021/08/07 12:21:47;;;;;;;7.00;1.60;;;21.60;99.90;;;;;;14848021;23;20028;-79
2021/08/07 12:27:36;;;;;;;3.83;1.20;;;22.00;99.90;;;;;;14845701;23;20024;-78
2021/08/07 12:33:26;;;;;;;7.82;1.58;;;22.40;99.90;;;;;;14848450;23;20828;-79
2021/08/07 12:39:13;;;;;;;8.43;1.50;;;22.50;99.90;;;;;;14846666;23;20098;-79
2021/08/07 12:45:01;;;;;;;5.28;1.50;;;22.60;99.90;;;;;;14847176;23;20462;-78
2021/08/07 12:51:01;;;;;;;5.10;1.25;;;22.60;99.90;;;;;;14847495;22;20031;-78
2021/08/07 12:56:48;;;;;;;5.72;1.20;;;22.70;99.90;;;;;;14846945;23;20020;-78
2021/08/07 13:02:35;;;;;;;5.80;1.35;;;22.80;99.90;;;;;;14845968;23;20032;-78
2021/08/07 13:08:30;;;;;;;4.40;1.10;;;22.80;99.90;;;;;;14847035;23;20036;-79
2021/08/07 13:14:17;;;;;;;4.70;1.20;;;22.90;99.90;;;;;;14845916;23;20020;-78
2021/08/07 13:20:06;;;;;;;6.30;1.52;;;23.10;99.90;;;;;;14845802;23;20016;-76
2021/08/07 13:26:04;;;;;;;6.30;1.33;;;23.60;99.90;;;;;;14842987;23;20055;-76
2021/08/07 13:31:51;;;;;;;7.43;1.23;;;23.80;99.90;;;;;;14842919;23;20028;-76
2021/08/07 13:37:42;;;;;;;5.40;1.13;;;23.90;98.90;;;;;;14842559;23;20020;-76
2021/08/07 13:43:30;;;;;;;10.57;1.30;;;23.70;97.10;;;;;;14841770;23;20360;-77
2021/08/07 13:49:17;;;;;;;4.20;1.23;;;23.80;98.10;;;;;;14843541;22;20024;-75
2021/08/07 13:55:04;;;;;;;5.45;1.17;;;24.10;96.40;;;;;;14846033;23;20024;-77
2021/08/07 14:00:53;;;;;;;5.28;1.10;;;23.90;96.00;;;;;;14843414;23;20607;-75
2021/08/07 14:06:40;;;;;;;3.35;0.82;;;23.60;95.40;;;;;;14842770;23;20893;-76
2021/08/07 14:12:27;;;;;;;6.35;0.90;;;23.20;96.20;;;;;;14840597;23;20782;-77
2021/08/07 14:18:15;;;;;;;5.47;0.98;;;23.30;95.40;;;;;;14842508;23;20091;-77
2021/08/07 14:24:02;;;;;;;5.05;0.93;;;23.80;94.80;;;;;;14840616;23;20028;-77
2021/08/07 14:29:49;;;;;;;7.45;1.02;;;24.20;94.80;;;;;;14841701;23;20020;-77
2021/08/07 14:35:37;;;;;;;3.35;0.90;;;24.70;93.70;;;;;;14842941;23;20020;-77
2021/08/07 14:41:24;;;;;;;5.18;1.00;;;24.80;93.20;;;;;;14841948;23;20028;-78
2021/08/07 14:47:11;;;;;;;5.80;1.25;;;25.00;92.70;;;;;;14845268;23;20024;-78
2021/08/07 14:52:59;;;;;;;2.38;0.95;;;25.10;92.50;;;;;;14841921;22;20524;-78
2021/08/07 14:58:46;;;;;;;7.18;1.33;;;25.20;91.80;;;;;;14840971;23;20030;-78
2021/08/07 15:04:33;;;;;;;5.28;0.90;;;25.10;91.70;;;;;;14842013;23;20146;-78
2021/08/07 15:10:22;;;;;;;4.03;1.08;;;25.10;91.00;;;;;;14839551;23;20513;-78
2021/08/07 15:16:09;;;;;;;2.28;0.90;;;25.50;90.30;;;;;;14841325;23;20099;-79
2021/08/07 15:21:56;;;;;;;1.85;1.00;;;25.60;90.10;;;;;;14841372;23;20024;-77
2021/08/07 15:27:46;;;;;;;2.60;1.08;;;25.20;90.40;;;;;;14840789;23;20024;-78
2021/08/07 15:33:35;;;;;;;3.55;1.10;;;24.40;90.80;;;;;;14841700;23;20028;-79
2021/08/07 15:39:22;;;;;;;3.10;0.95;;;23.80;91.80;;;;;;14842300;23;20062;-78
2021/08/07 15:45:11;;;;;;;2.38;0.77;;;23.40;92.80;;;;;;14844932;23;20030;-76
2021/08/07 15:50:58;;;;;;;5.18;1.00;;;23.10;94.10;;;;;;14846468;22;20094;-79
2021/08/07 15:56:45;;;;;;;2.53;0.57;;;21.30;99.90;;;;;;14849269;23;20020;-78
2021/08/07 16:02:36;;;;;;;4.65;0.93;;;20.40;99.90;;;;;;14822675;23;20026;-80
2021/08/07 16:08:23;;;;;;;2.60;0.80;;;20.10;99.90;;;;;;14851981;23;20031;-79
2021/08/07 16:14:10;;;;;;;3.65;1.00;;;20.30;99.90;;;;;;14847404;23;20024;-80
2021/08/07 16:19:58;;;;;;;4.00;0.88;;;20.60;99.90;;;;;;14849614;23;20020;-79
2021/08/07 16:25:45;;;;;;;3.40;1.00;;;21.50;99.90;;;;;;14848641;23;20027;-79
2021/08/07 16:31:33;;;;;;;2.45;0.88;;;23.10;99.90;;;;;;14846722;23;20031;-77
2021/08/07 16:37:21;;;;;;;5.40;0.80;;;23.50;99.90;;;;;;14844836;23;20016;-76
2021/08/07 16:43:08;;;;;;;1.80;0.80;;;23.00;99.90;;;;;;14777377;23;20020;-78
2021/08/07 16:48:55;;;;;;;6.80;1.10;;;22.60;99.90;;;;;;14771643;23;20032;-79
2021/08/07 16:54:43;;;;;;;4.07;0.93;;;21.50;99.90;;;;;;14777119;23;20035;-79
2021/08/07 17:00:33;;;;;;;3.85;0.73;;;20.50;99.90;;;;;;14779827;23;20025;-78
2021/08/07 17:06:20;;;;;;;2.40;0.68;;;20.30;99.90;;;;;;14749377;23;20020;-75
2021/08/07 17:12:08;;;;;;;1.05;0.60;;;20.30;99.90;;;;;;14771866;23;20116;-74
2021/08/07 17:17:55;;;;;;;3.13;0.80;;;20.40;99.90;;;;;;14769817;23;20116;-75
2021/08/07 17:23:42;;;;;;;2.47;0.70;;;20.20;99.90;;;;;;14771085;23;20039;-76
2021/08/07 17:29:31;;;;;;;1.90;1.10;;;20.40;99.90;;;;;;14771659;23;20020;-76
2021/08/07 17:35:17;;;;;;;2.65;1.52;;;20.60;99.90;;;;;;14771081;23;20032;-76
2021/08/07 17:41:05;;;;;;;4.22;1.00;;;20.80;99.90;;;;;;14851597;22;20026;-76
2021/08/07 17:46:53;;;;;;;26.60;16.35;;;20.80;99.90;;;;;;14915439;22;20766;-76
2021/08/07 17:52:41;;;;;;;1.15;0.93;;;21.30;99.90;;;;;;14915238;22;20365;-76
2021/08/07 17:58:28;;;;;;;2.05;0.75;;;21.90;99.90;;;;;;14915235;22;20020;-76
2021/08/07 18:04:17;;;;;;;2.25;1.00;;;21.90;99.90;;;;;;14912758;22;20453;-77
2021/08/07 18:10:04;;;;;;;6.25;1.00;;;21.90;99.90;;;;;;14913832;22;20035;-77
2021/08/07 18:15:53;;;;;;;1.20;0.90;;;23.30;99.90;;;;;;14914145;22;20026;-78
2021/08/07 18:21:44;;;;;;;5.57;0.90;;;25.10;97.50;;;;;;14916609;22;20642;-78
2021/08/07 18:27:31;;;;;;;4.53;0.75;;;26.50;94.80;;;;;;14915058;22;20082;-79
2021/08/07 18:33:18;;;;;;;1.45;0.80;;;28.00;90.60;;;;;;14915028;22;20118;-79
2021/08/07 18:39:06;;;;;;;1.70;1.10;;;28.60;87.70;;;;;;14913141;22;20020;-79
2021/08/07 18:44:53;;;;;;;2.17;1.00;;;27.10;90.30;;;;;;14918074;22;20020;-79
2021/08/07 18:50:43;;;;;;;4.32;1.23;;;25.40;93.00;;;;;;14916946;22;20024;-78
2021/08/07 18:56:31;;;;;;;8.57;1.48;;;24.20;95.30;;;;;;14916601;22;20031;-77
2021/08/07 19:02:18;;;;;;;5.35;1.05;;;23.30;97.10;;;;;;14915772;22;20066;-78
2021/08/07 19:08:06;;;;;;;3.47;1.20;;;22.80;98.40;;;;;;14915881;22;20016;-78
2021/08/07 19:13:54;;;;;;;6.78;1.80;;;22.30;99.70;;;;;;14915247;22;20027;-78
2021/08/07 19:19:41;;;;;;;4.65;1.92;;;21.90;99.90;;;;;;14915683;22;20022;-79
2021/08/07 19:25:28;;;;;;;4.63;1.85;;;21.60;99.90;;;;;;14910608;22;20020;-78
2021/08/07 19:31:19;;;;;;;13.82;4.88;;;21.20;99.90;;;;;;14913614;22;20024;-79
2021/08/07 19:37:06;;;;;;;5.50;1.75;;;21.00;99.90;;;;;;14914928;22;20019;-79
2021/08/07 19:42:53;;;;;;;3.28;1.50;;;20.80;99.90;;;;;;14914336;22;20030;-79
2021/08/07 19:48:41;;;;;;;8.45;1.50;;;20.80;99.90;;;;;;14916971;22;20055;-79
2021/08/07 19:54:28;;;;;;;9.02;1.42;;;20.70;99.90;;;;;;14915215;22;20030;-79
2021/08/07 20:00:15;;;;;;;9.05;1.60;;;20.60;99.90;;;;;;14916279;22;20031;-78
2021/08/07 20:06:04;;;;;;;3.08;1.50;;;20.60;99.90;;;;;;14917800;22;20024;-78
2021/08/07 20:11:52;;;;;;;6.05;1.50;;;20.50;99.90;;;;;;14915945;22;20345;-78
2021/08/07 20:17:39;;;;;;;5.00;1.70;;;20.50;99.90;;;;;;14917418;22;20031;-78
2021/08/07 20:23:28;;;;;;;6.55;1.83;;;20.50;99.90;;;;;;14925599;22;20106;-78
2021/08/07 20:29:14;;;;;;;6.63;1.52;;;20.60;99.90;;;;;;14919032;22;20025;-78
2021/08/07 20:35:01;;;;;;;4.50;1.30;;;20.60;99.90;;;;;;14920666;22;20189;-77
2021/08/07 20:40:49;;;;;;;4.47;1.50;;;20.60;99.90;;;;;;14920700;22;20032;-78
2021/08/07 20:46:36;;;;;;;10.32;1.73;;;20.60;99.90;;;;;;14918963;22;20452;-77
2021/08/07 20:52:24;;;;;;;3.83;1.50;;;20.50;99.90;;;;;;14917695;22;20034;-75
2021/08/07 20:58:12;;;;;;;10.93;2.33;;;20.20;99.90;;;;;;14917974;22;20094;-80
2021/08/07 21:04:01;;;;;;;7.05;2.17;;;20.10;99.90;;;;;;14918750;22;20034;-79
2021/08/07 21:09:48;;;;;;;13.10;2.55;;;20.20;99.90;;;;;;14920400;22;20142;-77
2021/08/07 21:15:36;;;;;;;7.95;2.33;;;20.00;99.50;;;;;;14917105;22;20019;-76
2021/08/07 21:21:23;;;;;;;13.93;2.63;;;20.20;99.50;;;;;;14916921;22;20016;-76
2021/08/07 21:27:12;;;;;;;7.03;2.13;;;20.20;99.80;;;;;;14916450;22;20024;-76
2021/08/07 21:33:00;;;;;;;8.77;2.42;;;20.30;99.60;;;;;;14917418;22;20019;-76
2021/08/07 21:38:47;;;;;;;8.90;2.05;;;20.40;99.90;;;;;;14916560;22;20026;-76
2021/08/07 21:44:38;;;;;;;6.78;1.90;;;20.50;99.90;;;;;;14916545;22;20020;-76
2021/08/07 21:50:26;;;;;;;8.68;1.98;;;20.50;99.90;;;;;;14917132;22;20349;-78
2021/08/07 21:56:13;;;;;;;3.00;1.67;;;20.50;99.90;;;;;;14890645;22;20050;-78
2021/08/07 22:02:00;;;;;;;3.78;1.50;;;20.40;99.90;;;;;;14918086;22;20020;-77
2021/08/07 22:07:48;;;;;;;8.05;1.77;;;20.30;99.90;;;;;;14918454;22;20030;-78
2021/08/07 22:13:35;;;;;;;4.50;1.88;;;20.30;99.90;;;;;;14922891;22;20193;-76
2021/08/07 22:19:22;;;;;;;5.72;1.80;;;20.20;99.90;;;;;;14922324;22;20042;-79
2021/08/07 22:25:12;;;;;;;3.50;1.60;;;20.20;99.90;;;;;;14918169;22;20506;-78
2021/08/07 22:30:59;;;;;;;4.43;1.80;;;20.30;99.90;;;;;;14918544;22;20073;-78
2021/08/07 22:36:45;;;;;;;6.53;1.83;;;20.10;99.90;;;;;;14915815;22;20408;-78
2021/08/07 22:42:34;;;;;;;9.57;2.10;;;20.00;99.90;;;;;;14916052;22;20020;-78
2021/08/07 22:48:20;;;;;;;8.27;1.70;;;20.00;99.90;;;;;;14915340;22;20030;-76
2021/08/07 22:54:07;;;;;;;5.78;1.80;;;20.00;99.90;;;;;;14912609;22;20026;-76
2021/08/07 22:59:56;;;;;;;8.55;1.75;;;20.10;99.90;;;;;;14916559;22;20098;-78
2021/08/07 23:05:43;;;;;;;9.80;2.17;;;20.00;99.90;;;;;;14916274;22;20035;-77
2021/08/07 23:11:30;;;;;;;12.50;2.20;;;19.90;99.90;;;;;;14916259;22;20020;-78
2021/08/07 23:17:18;;;;;;;4.60;2.00;;;20.00;99.90;;;;;;14917222;22;20020;-78
2021/08/07 23:23:05;;;;;;;11.43;1.80;;;19.90;99.90;;;;;;14913025;22;20142;-78
2021/08/07 23:28:52;;;;;;;7.13;2.05;;;19.70;99.90;;;;;;14913624;22;20326;-78
2021/08/07 23:34:41;;;;;;;6.53;2.20;;;19.70;99.90;;;;;;14915553;22;20030;-78
2021/08/07 23:40:27;;;;;;;12.80;2.60;;;19.60;99.90;;;;;;14915579;22;20020;-78
2021/08/07 23:46:16;;;;;;;10.15;2.65;;;19.40;99.90;;;;;;14918525;22;20157;-79
2021/08/07 23:52:05;;;;;;;7.05;2.35;;;19.60;99.90;;;;;;14917034;22;20364;-78
2021/08/07 23:57:51;;;;;;;11.18;2.60;;;19.40;99.90;;;;;;14916391;22;20019;-78
